sensor_id;sensor_type;location;lat;lon;timestamp;P1;durP1;ratioP1;P2;durP2;ratioP2
80694;SDS011;70059;42.702;23.312;2024-03-02T00:00:01;37.15;;;20.90;;
80694;SDS011;70059;42.702;23.312;2024-03-02T00:02:42;38.33;;;21.15;;
80694;SDS011;70059;42.702;23.312;2024-03-02T00:05:13;38.03;;;20.90;;
80694;SDS011;70059;42.702;23.312;2024-03-02T00:07:42;37.80;;;20.25;;
80694;SDS011;70059;42.702;23.312;2024-03-02T00:10:09;34.13;;;17.55;;
80694;SDS011;70059;42.702;23.312;2024-03-02T00:12:41;34.00;;;20.70;;
80694;SDS011;70059;42.702;23.312;2024-03-02T00:17:54;32.88;;;18.63;;
80694;SDS011;70059;42.702;23.312;2024-03-02T00:20:21;32.97;;;19.25;;
80694;SDS011;70059;42.702;23.312;2024-03-02T00:22:48;29.13;;;15.40;;
80694;SDS011;70059;42.702;23.312;2024-03-02T00:25:16;38.30;;;18.80;;
80694;SDS011;70059;42.702;23.312;2024-03-02T00:27:42;35.90;;;18.13;;
80694;SDS011;70059;42.702;23.312;2024-03-02T00:30:30;35.28;;;17.55;;
80694;SDS011;70059;42.702;23.312;2024-03-02T00:33:06;34.60;;;18.45;;
80694;SDS011;70059;42.702;23.312;2024-03-02T00:35:32;38.05;;;19.30;;
80694;SDS011;70059;42.702;23.312;2024-03-02T00:37:58;34.65;;;18.88;;
80694;SDS011;70059;42.702;23.312;2024-03-02T00:40:29;37.17;;;20.75;;
80694;SDS011;70059;42.702;23.312;2024-03-02T00:42:55;35.05;;;19.73;;
80694;SDS011;70059;42.702;23.312;2024-03-02T00:45:21;36.55;;;19.48;;
80694;SDS011;70059;42.702;23.312;2024-03-02T00:47:47;36.72;;;19.77;;
80694;SDS011;70059;42.702;23.312;2024-03-02T00:50:13;39.70;;;20.85;;
80694;SDS011;70059;42.702;23.312;2024-03-02T00:52:39;33.65;;;19.00;;
80694;SDS011;70059;42.702;23.312;2024-03-02T00:55:12;37.63;;;20.35;;
80694;SDS011;70059;42.702;23.312;2024-03-02T00:57:38;33.05;;;19.13;;
80694;SDS011;70059;42.702;23.312;2024-03-02T01:00:04;38.47;;;20.38;;
80694;SDS011;70059;42.702;23.312;2024-03-02T01:02:34;35.23;;;20.40;;
80694;SDS011;70059;42.702;23.312;2024-03-02T01:05:00;36.22;;;20.05;;
80694;SDS011;70059;42.702;23.312;2024-03-02T01:07:26;38.15;;;20.92;;
80694;SDS011;70059;42.702;23.312;2024-03-02T01:09:51;37.53;;;19.23;;
80694;SDS011;70059;42.702;23.312;2024-03-02T01:12:17;35.70;;;19.60;;
80694;SDS011;70059;42.702;23.312;2024-03-02T01:14:43;33.58;;;19.23;;
80694;SDS011;70059;42.702;23.312;2024-03-02T01:17:15;36.10;;;19.60;;
80694;SDS011;70059;42.702;23.312;2024-03-02T01:19:41;35.65;;;19.83;;
80694;SDS011;70059;42.702;23.312;2024-03-02T01:22:07;37.80;;;19.77;;
80694;SDS011;70059;42.702;23.312;2024-03-02T01:24:32;31.42;;;19.27;;
80694;SDS011;70059;42.702;23.312;2024-03-02T01:26:59;34.15;;;18.38;;
80694;SDS011;70059;42.702;23.312;2024-03-02T01:29:24;35.03;;;20.05;;
80694;SDS011;70059;42.702;23.312;2024-03-02T01:31:57;32.35;;;18.92;;
80694;SDS011;70059;42.702;23.312;2024-03-02T01:34:22;32.30;;;19.75;;
80694;SDS011;70059;42.702;23.312;2024-03-02T01:36:48;38.90;;;21.75;;
80694;SDS011;70059;42.702;23.312;2024-03-02T01:39:13;40.10;;;23.30;;
80694;SDS011;70059;42.702;23.312;2024-03-02T01:41:39;40.10;;;21.95;;
80694;SDS011;70059;42.702;23.312;2024-03-02T01:44:05;39.63;;;22.27;;
80694;SDS011;70059;42.702;23.312;2024-03-02T01:46:30;39.35;;;22.90;;
80694;SDS011;70059;42.702;23.312;2024-03-02T01:48:56;46.88;;;23.25;;
80694;SDS011;70059;42.702;23.312;2024-03-02T01:51:22;40.08;;;22.13;;
80694;SDS011;70059;42.702;23.312;2024-03-02T01:53:47;40.00;;;22.83;;
80694;SDS011;70059;42.702;23.312;2024-03-02T01:56:13;43.92;;;22.60;;
80694;SDS011;70059;42.702;23.312;2024-03-02T01:58:38;44.97;;;22.83;;
80694;SDS011;70059;42.702;23.312;2024-03-02T02:01:04;41.53;;;23.25;;
80694;SDS011;70059;42.702;23.312;2024-03-02T02:03:37;39.63;;;21.75;;
80694;SDS011;70059;42.702;23.312;2024-03-02T02:06:02;42.28;;;21.85;;
80694;SDS011;70059;42.702;23.312;2024-03-02T02:08:28;42.38;;;22.55;;
80694;SDS011;70059;42.702;23.312;2024-03-02T02:10:54;39.97;;;22.33;;
80694;SDS011;70059;42.702;23.312;2024-03-02T02:13:19;38.55;;;22.33;;
80694;SDS011;70059;42.702;23.312;2024-03-02T02:15:45;39.63;;;22.00;;
80694;SDS011;70059;42.702;23.312;2024-03-02T02:18:11;42.03;;;22.25;;
80694;SDS011;70059;42.702;23.312;2024-03-02T02:20:36;42.08;;;22.20;;
80694;SDS011;70059;42.702;23.312;2024-03-02T02:23:03;42.50;;;21.98;;
80694;SDS011;70059;42.702;23.312;2024-03-02T02:25:30;40.00;;;21.20;;
80694;SDS011;70059;42.702;23.312;2024-03-02T02:27:56;38.60;;;22.08;;
80694;SDS011;70059;42.702;23.312;2024-03-02T02:30:26;42.67;;;22.73;;
80694;SDS011;70059;42.702;23.312;2024-03-02T02:32:55;46.10;;;22.33;;
80694;SDS011;70059;42.702;23.312;2024-03-02T02:35:27;39.72;;;22.25;;
80694;SDS011;70059;42.702;23.312;2024-03-02T02:37:53;40.58;;;22.35;;
80694;SDS011;70059;42.702;23.312;2024-03-02T02:40:20;47.38;;;23.30;;
80694;SDS011;70059;42.702;23.312;2024-03-02T02:42:46;37.38;;;20.35;;
80694;SDS011;70059;42.702;23.312;2024-03-02T02:45:17;41.00;;;21.13;;
80694;SDS011;70059;42.702;23.312;2024-03-02T02:50:09;36.78;;;20.52;;
80694;SDS011;70059;42.702;23.312;2024-03-02T02:52:37;39.15;;;21.42;;
80694;SDS011;70059;42.702;23.312;2024-03-02T02:55:05;41.03;;;23.15;;
80694;SDS011;70059;42.702;23.312;2024-03-02T02:57:32;41.28;;;21.42;;
80694;SDS011;70059;42.702;23.312;2024-03-02T03:00:04;42.97;;;23.10;;
80694;SDS011;70059;42.702;23.312;2024-03-02T03:02:41;42.60;;;22.55;;
80694;SDS011;70059;42.702;23.312;2024-03-02T03:05:11;44.63;;;22.00;;
80694;SDS011;70059;42.702;23.312;2024-03-02T03:07:41;36.50;;;21.40;;
80694;SDS011;70059;42.702;23.312;2024-03-02T03:10:07;41.05;;;22.38;;
80694;SDS011;70059;42.702;23.312;2024-03-02T03:12:34;41.58;;;21.95;;
80694;SDS011;70059;42.702;23.312;2024-03-02T03:15:00;44.45;;;24.38;;
80694;SDS011;70059;42.702;23.312;2024-03-02T03:17:26;51.13;;;27.52;;
80694;SDS011;70059;42.702;23.312;2024-03-02T03:19:52;55.97;;;29.10;;
80694;SDS011;70059;42.702;23.312;2024-03-02T03:22:18;53.78;;;28.45;;
80694;SDS011;70059;42.702;23.312;2024-03-02T03:24:44;48.30;;;25.25;;
80694;SDS011;70059;42.702;23.312;2024-03-02T03:27:10;43.90;;;24.58;;
80694;SDS011;70059;42.702;23.312;2024-03-02T03:29:38;40.80;;;23.95;;
80694;SDS011;70059;42.702;23.312;2024-03-02T03:32:04;40.35;;;22.50;;
80694;SDS011;70059;42.702;23.312;2024-03-02T03:34:38;41.83;;;21.95;;
80694;SDS011;70059;42.702;23.312;2024-03-02T03:37:03;42.40;;;22.63;;
80694;SDS011;70059;42.702;23.312;2024-03-02T03:39:29;41.97;;;22.55;;
80694;SDS011;70059;42.702;23.312;2024-03-02T03:41:55;41.35;;;22.48;;
80694;SDS011;70059;42.702;23.312;2024-03-02T03:44:20;40.55;;;21.85;;
80694;SDS011;70059;42.702;23.312;2024-03-02T03:46:46;41.15;;;23.10;;
80694;SDS011;70059;42.702;23.312;2024-03-02T03:49:12;39.65;;;22.00;;
80694;SDS011;70059;42.702;23.312;2024-03-02T03:51:37;43.78;;;22.83;;
80694;SDS011;70059;42.702;23.312;2024-03-02T03:54:03;42.83;;;22.92;;
80694;SDS011;70059;42.702;23.312;2024-03-02T03:56:29;41.53;;;22.33;;
80694;SDS011;70059;42.702;23.312;2024-03-02T03:58:54;41.70;;;22.15;;
80694;SDS011;70059;42.702;23.312;2024-03-02T04:01:20;39.90;;;21.50;;
80694;SDS011;70059;42.702;23.312;2024-03-02T04:03:47;42.08;;;21.63;;
80694;SDS011;70059;42.702;23.312;2024-03-02T04:06:13;37.75;;;21.75;;
80694;SDS011;70059;42.702;23.312;2024-03-02T04:08:39;41.17;;;22.30;;
80694;SDS011;70059;42.702;23.312;2024-03-02T04:11:13;44.58;;;23.02;;
80694;SDS011;70059;42.702;23.312;2024-03-02T04:13:38;38.30;;;22.13;;
80694;SDS011;70059;42.702;23.312;2024-03-02T04:16:04;41.78;;;22.55;;
80694;SDS011;70059;42.702;23.312;2024-03-02T04:18:30;40.88;;;22.17;;
80694;SDS011;70059;42.702;23.312;2024-03-02T04:20:57;40.97;;;22.13;;
80694;SDS011;70059;42.702;23.312;2024-03-02T04:23:24;39.45;;;22.65;;
80694;SDS011;70059;42.702;23.312;2024-03-02T04:25:50;43.25;;;22.15;;
80694;SDS011;70059;42.702;23.312;2024-03-02T04:28:16;38.97;;;22.23;;
80694;SDS011;70059;42.702;23.312;2024-03-02T04:30:41;42.90;;;22.27;;
80694;SDS011;70059;42.702;23.312;2024-03-02T04:33:07;42.53;;;22.77;;
80694;SDS011;70059;42.702;23.312;2024-03-02T04:35:35;39.70;;;21.95;;
80694;SDS011;70059;42.702;23.312;2024-03-02T04:38:03;44.58;;;24.98;;
80694;SDS011;70059;42.702;23.312;2024-03-02T04:40:29;56.83;;;33.47;;
80694;SDS011;70059;42.702;23.312;2024-03-02T04:42:55;74.15;;;51.40;;
80694;SDS011;70059;42.702;23.312;2024-03-02T04:45:20;58.47;;;39.72;;
80694;SDS011;70059;42.702;23.312;2024-03-02T04:47:46;51.40;;;31.63;;
80694;SDS011;70059;42.702;23.312;2024-03-02T04:50:12;52.67;;;25.98;;
80694;SDS011;70059;42.702;23.312;2024-03-02T04:52:37;43.65;;;24.83;;
80694;SDS011;70059;42.702;23.312;2024-03-02T04:55:03;45.25;;;24.83;;
80694;SDS011;70059;42.702;23.312;2024-03-02T04:57:48;47.38;;;25.25;;
80694;SDS011;70059;42.702;23.312;2024-03-02T05:00:15;49.08;;;25.75;;
80694;SDS011;70059;42.702;23.312;2024-03-02T05:02:42;46.92;;;25.60;;
80694;SDS011;70059;42.702;23.312;2024-03-02T05:05:07;45.15;;;25.83;;
80694;SDS011;70059;42.702;23.312;2024-03-02T05:07:33;48.13;;;24.88;;
80694;SDS011;70059;42.702;23.312;2024-03-02T05:09:59;49.28;;;26.48;;
80694;SDS011;70059;42.702;23.312;2024-03-02T05:12:24;45.78;;;25.88;;
80694;SDS011;70059;42.702;23.312;2024-03-02T05:15:08;50.88;;;25.35;;
80694;SDS011;70059;42.702;23.312;2024-03-02T05:17:35;47.85;;;26.67;;
80694;SDS011;70059;42.702;23.312;2024-03-02T05:20:02;52.78;;;27.65;;
80694;SDS011;70059;42.702;23.312;2024-03-02T05:25:05;55.63;;;28.67;;
80694;SDS011;70059;42.702;23.312;2024-03-02T05:27:32;65.00;;;30.15;;
80694;SDS011;70059;42.702;23.312;2024-03-02T05:29:58;63.58;;;31.40;;
80694;SDS011;70059;42.702;23.312;2024-03-02T05:32:24;58.75;;;31.08;;
80694;SDS011;70059;42.702;23.312;2024-03-02T05:34:49;57.40;;;30.10;;
80694;SDS011;70059;42.702;23.312;2024-03-02T05:37:24;55.60;;;29.00;;
80694;SDS011;70059;42.702;23.312;2024-03-02T05:39:49;57.42;;;28.92;;
80694;SDS011;70059;42.702;23.312;2024-03-02T05:42:15;56.80;;;28.88;;
80694;SDS011;70059;42.702;23.312;2024-03-02T05:44:41;52.33;;;27.08;;
80694;SDS011;70059;42.702;23.312;2024-03-02T05:47:07;54.72;;;27.95;;
80694;SDS011;70059;42.702;23.312;2024-03-02T05:49:35;53.92;;;28.52;;
80694;SDS011;70059;42.702;23.312;2024-03-02T05:52:01;56.08;;;27.40;;
80694;SDS011;70059;42.702;23.312;2024-03-02T05:54:34;57.17;;;30.23;;
80694;SDS011;70059;42.702;23.312;2024-03-02T05:56:59;61.58;;;31.65;;
80694;SDS011;70059;42.702;23.312;2024-03-02T05:59:41;54.33;;;28.85;;
80694;SDS011;70059;42.702;23.312;2024-03-02T06:02:07;57.08;;;30.73;;
80694;SDS011;70059;42.702;23.312;2024-03-02T06:04:33;54.60;;;29.25;;
80694;SDS011;70059;42.702;23.312;2024-03-02T06:06:58;52.20;;;28.67;;
80694;SDS011;70059;42.702;23.312;2024-03-02T06:09:24;51.22;;;28.25;;
80694;SDS011;70059;42.702;23.312;2024-03-02T06:11:50;53.25;;;26.25;;
80694;SDS011;70059;42.702;23.312;2024-03-02T06:14:15;53.88;;;25.65;;
80694;SDS011;70059;42.702;23.312;2024-03-02T06:16:41;51.55;;;26.40;;
80694;SDS011;70059;42.702;23.312;2024-03-02T06:19:07;49.70;;;26.48;;
80694;SDS011;70059;42.702;23.312;2024-03-02T06:21:32;54.25;;;26.80;;
80694;SDS011;70059;42.702;23.312;2024-03-02T06:23:58;49.17;;;25.95;;
80694;SDS011;70059;42.702;23.312;2024-03-02T06:26:24;53.85;;;27.13;;
80694;SDS011;70059;42.702;23.312;2024-03-02T06:28:49;50.05;;;26.42;;
80694;SDS011;70059;42.702;23.312;2024-03-02T06:31:15;51.00;;;26.13;;
80694;SDS011;70059;42.702;23.312;2024-03-02T06:33:41;50.15;;;25.75;;
80694;SDS011;70059;42.702;23.312;2024-03-02T06:36:07;52.75;;;26.15;;
80694;SDS011;70059;42.702;23.312;2024-03-02T06:38:34;55.03;;;26.65;;
80694;SDS011;70059;42.702;23.312;2024-03-02T06:41:00;55.30;;;27.80;;
80694;SDS011;70059;42.702;23.312;2024-03-02T06:43:26;53.70;;;25.63;;
80694;SDS011;70059;42.702;23.312;2024-03-02T06:45:51;47.40;;;24.70;;
80694;SDS011;70059;42.702;23.312;2024-03-02T06:48:17;50.95;;;26.25;;
80694;SDS011;70059;42.702;23.312;2024-03-02T06:50:48;52.97;;;26.67;;
80694;SDS011;70059;42.702;23.312;2024-03-02T06:53:15;51.60;;;25.95;;
80694;SDS011;70059;42.702;23.312;2024-03-02T06:55:44;47.75;;;24.35;;
80694;SDS011;70059;42.702;23.312;2024-03-02T06:58:13;49.17;;;25.13;;
80694;SDS011;70059;42.702;23.312;2024-03-02T07:00:42;55.00;;;27.45;;
80694;SDS011;70059;42.702;23.312;2024-03-02T07:03:09;52.70;;;26.33;;
80694;SDS011;70059;42.702;23.312;2024-03-02T07:05:35;50.08;;;25.90;;
80694;SDS011;70059;42.702;23.312;2024-03-02T07:08:01;49.13;;;25.30;;
80694;SDS011;70059;42.702;23.312;2024-03-02T07:10:27;48.80;;;25.00;;
80694;SDS011;70059;42.702;23.312;2024-03-02T07:12:53;47.75;;;24.90;;
80694;SDS011;70059;42.702;23.312;2024-03-02T07:15:25;45.90;;;23.83;;
80694;SDS011;70059;42.702;23.312;2024-03-02T07:17:53;46.40;;;24.60;;
80694;SDS011;70059;42.702;23.312;2024-03-02T07:20:19;48.05;;;24.77;;
80694;SDS011;70059;42.702;23.312;2024-03-02T07:22:44;45.92;;;24.60;;
80694;SDS011;70059;42.702;23.312;2024-03-02T07:25:10;45.75;;;22.55;;
80694;SDS011;70059;42.702;23.312;2024-03-02T07:27:36;48.10;;;24.70;;
80694;SDS011;70059;42.702;23.312;2024-03-02T07:30:02;44.83;;;23.27;;
80694;SDS011;70059;42.702;23.312;2024-03-02T07:32:28;46.30;;;24.23;;
80694;SDS011;70059;42.702;23.312;2024-03-02T07:34:54;49.78;;;24.65;;
80694;SDS011;70059;42.702;23.312;2024-03-02T07:37:20;46.92;;;24.20;;
80694;SDS011;70059;42.702;23.312;2024-03-02T07:39:47;52.38;;;25.33;;
80694;SDS011;70059;42.702;23.312;2024-03-02T07:42:12;45.78;;;23.23;;
80694;SDS011;70059;42.702;23.312;2024-03-02T07:44:38;48.03;;;24.15;;
80694;SDS011;70059;42.702;23.312;2024-03-02T07:47:04;49.03;;;24.50;;
80694;SDS011;70059;42.702;23.312;2024-03-02T07:49:36;46.33;;;24.30;;
80694;SDS011;70059;42.702;23.312;2024-03-02T07:52:02;46.08;;;23.20;;
80694;SDS011;70059;42.702;23.312;2024-03-02T07:54:27;49.03;;;24.20;;
80694;SDS011;70059;42.702;23.312;2024-03-02T07:56:53;45.28;;;23.92;;
80694;SDS011;70059;42.702;23.312;2024-03-02T07:59:19;45.97;;;23.13;;
80694;SDS011;70059;42.702;23.312;2024-03-02T08:01:45;40.22;;;22.35;;
80694;SDS011;70059;42.702;23.312;2024-03-02T08:04:11;43.60;;;23.80;;
80694;SDS011;70059;42.702;23.312;2024-03-02T08:06:37;45.85;;;23.77;;
80694;SDS011;70059;42.702;23.312;2024-03-02T08:09:02;44.05;;;23.33;;
80694;SDS011;70059;42.702;23.312;2024-03-02T08:14:00;46.28;;;22.52;;
80694;SDS011;70059;42.702;23.312;2024-03-02T08:16:25;42.10;;;22.08;;
80694;SDS011;70059;42.702;23.312;2024-03-02T08:18:51;48.92;;;24.67;;
80694;SDS011;70059;42.702;23.312;2024-03-02T08:21:17;43.05;;;23.45;;
80694;SDS011;70059;42.702;23.312;2024-03-02T08:23:43;45.20;;;24.13;;
80694;SDS011;70059;42.702;23.312;2024-03-02T08:26:10;43.25;;;22.50;;
80694;SDS011;70059;42.702;23.312;2024-03-02T08:28:42;43.88;;;24.65;;
80694;SDS011;70059;42.702;23.312;2024-03-02T08:31:08;47.67;;;23.98;;
80694;SDS011;70059;42.702;23.312;2024-03-02T08:33:34;47.38;;;26.67;;
80694;SDS011;70059;42.702;23.312;2024-03-02T08:36:06;47.55;;;24.25;;
80694;SDS011;70059;42.702;23.312;2024-03-02T08:38:34;43.88;;;23.42;;
80694;SDS011;70059;42.702;23.312;2024-03-02T08:41:00;43.90;;;24.50;;
80694;SDS011;70059;42.702;23.312;2024-03-02T08:43:26;44.17;;;23.58;;
80694;SDS011;70059;42.702;23.312;2024-03-02T08:45:51;43.83;;;24.48;;
80694;SDS011;70059;42.702;23.312;2024-03-02T08:48:17;48.42;;;25.38;;
80694;SDS011;70059;42.702;23.312;2024-03-02T08:50:43;49.65;;;26.40;;
80694;SDS011;70059;42.702;23.312;2024-03-02T08:53:08;49.08;;;24.23;;
80694;SDS011;70059;42.702;23.312;2024-03-02T08:55:34;41.83;;;24.02;;
80694;SDS011;70059;42.702;23.312;2024-03-02T08:58:00;40.05;;;23.88;;
80694;SDS011;70059;42.702;23.312;2024-03-02T09:00:25;42.47;;;23.30;;
80694;SDS011;70059;42.702;23.312;2024-03-02T09:02:51;43.58;;;25.13;;
80694;SDS011;70059;42.702;23.312;2024-03-02T09:05:17;43.95;;;26.02;;
80694;SDS011;70059;42.702;23.312;2024-03-02T09:07:42;42.55;;;26.52;;
80694;SDS011;70059;42.702;23.312;2024-03-02T09:10:09;50.25;;;28.45;;
80694;SDS011;70059;42.702;23.312;2024-03-02T09:12:35;44.60;;;24.02;;
80694;SDS011;70059;42.702;23.312;2024-03-02T09:15:01;39.30;;;22.40;;
80694;SDS011;70059;42.702;23.312;2024-03-02T09:17:33;42.08;;;23.95;;
80694;SDS011;70059;42.702;23.312;2024-03-02T09:19:59;39.63;;;21.77;;
80694;SDS011;70059;42.702;23.312;2024-03-02T09:22:25;41.28;;;24.48;;
80694;SDS011;70059;42.702;23.312;2024-03-02T09:24:50;44.00;;;24.83;;
80694;SDS011;70059;42.702;23.312;2024-03-02T09:27:16;37.60;;;22.17;;
80694;SDS011;70059;42.702;23.312;2024-03-02T09:29:41;39.92;;;23.85;;
80694;SDS011;70059;42.702;23.312;2024-03-02T09:32:08;38.08;;;23.45;;
80694;SDS011;70059;42.702;23.312;2024-03-02T09:34:37;41.20;;;24.05;;
80694;SDS011;70059;42.702;23.312;2024-03-02T09:37:02;40.38;;;22.48;;
80694;SDS011;70059;42.702;23.312;2024-03-02T09:39:29;42.03;;;24.45;;
80694;SDS011;70059;42.702;23.312;2024-03-02T09:41:55;40.72;;;23.70;;
80694;SDS011;70059;42.702;23.312;2024-03-02T09:44:21;37.90;;;22.33;;
80694;SDS011;70059;42.702;23.312;2024-03-02T09:46:50;42.97;;;24.90;;
80694;SDS011;70059;42.702;23.312;2024-03-02T09:49:16;49.58;;;25.02;;
80694;SDS011;70059;42.702;23.312;2024-03-02T09:51:48;38.88;;;24.08;;
80694;SDS011;70059;42.702;23.312;2024-03-02T09:54:15;42.55;;;25.25;;
80694;SDS011;70059;42.702;23.312;2024-03-02T09:56:41;42.15;;;24.08;;
80694;SDS011;70059;42.702;23.312;2024-03-02T09:59:07;40.50;;;24.08;;
80694;SDS011;70059;42.702;23.312;2024-03-02T10:01:32;39.70;;;23.98;;
80694;SDS011;70059;42.702;23.312;2024-03-02T10:03:59;42.30;;;23.30;;
80694;SDS011;70059;42.702;23.312;2024-03-02T10:06:25;41.58;;;23.75;;
80694;SDS011;70059;42.702;23.312;2024-03-02T10:08:52;46.03;;;25.40;;
80694;SDS011;70059;42.702;23.312;2024-03-02T10:11:51;44.40;;;25.10;;
80694;SDS011;70059;42.702;23.312;2024-03-02T10:14:11;42.28;;;22.95;;
80694;SDS011;70059;42.702;23.312;2024-03-02T10:16:38;40.17;;;23.73;;
80694;SDS011;70059;42.702;23.312;2024-03-02T10:19:20;37.88;;;23.40;;
80694;SDS011;70059;42.702;23.312;2024-03-02T10:21:47;41.50;;;24.00;;
80694;SDS011;70059;42.702;23.312;2024-03-02T10:24:20;42.75;;;24.05;;
80694;SDS011;70059;42.702;23.312;2024-03-02T10:26:47;42.53;;;23.85;;
80694;SDS011;70059;42.702;23.312;2024-03-02T10:29:13;45.67;;;25.10;;
80694;SDS011;70059;42.702;23.312;2024-03-02T10:31:39;41.63;;;25.45;;
80694;SDS011;70059;42.702;23.312;2024-03-02T10:34:09;40.38;;;23.40;;
80694;SDS011;70059;42.702;23.312;2024-03-02T10:36:36;40.60;;;23.92;;
80694;SDS011;70059;42.702;23.312;2024-03-02T10:39:05;42.17;;;24.52;;
80694;SDS011;70059;42.702;23.312;2024-03-02T10:41:35;39.95;;;23.33;;
80694;SDS011;70059;42.702;23.312;2024-03-02T10:44:11;39.90;;;23.80;;
80694;SDS011;70059;42.702;23.312;2024-03-02T10:46:37;41.65;;;24.25;;
80694;SDS011;70059;42.702;23.312;2024-03-02T10:49:03;41.70;;;24.92;;
80694;SDS011;70059;42.702;23.312;2024-03-02T10:51:31;43.25;;;24.20;;
80694;SDS011;70059;42.702;23.312;2024-03-02T10:53:59;40.58;;;23.85;;
80694;SDS011;70059;42.702;23.312;2024-03-02T10:56:29;41.60;;;23.45;;
80694;SDS011;70059;42.702;23.312;2024-03-02T10:59:22;42.90;;;23.38;;
80694;SDS011;70059;42.702;23.312;2024-03-02T11:01:55;46.60;;;24.38;;
80694;SDS011;70059;42.702;23.312;2024-03-02T11:04:24;41.40;;;23.50;;
80694;SDS011;70059;42.702;23.312;2024-03-02T11:06:51;43.67;;;24.58;;
80694;SDS011;70059;42.702;23.312;2024-03-02T11:09:20;43.13;;;24.30;;
80694;SDS011;70059;42.702;23.312;2024-03-02T11:11:56;43.20;;;24.25;;
80694;SDS011;70059;42.702;23.312;2024-03-02T11:14:29;43.10;;;24.40;;
80694;SDS011;70059;42.702;23.312;2024-03-02T11:16:57;36.88;;;22.20;;
80694;SDS011;70059;42.702;23.312;2024-03-02T11:19:24;38.00;;;22.27;;
80694;SDS011;70059;42.702;23.312;2024-03-02T11:21:51;42.53;;;23.85;;
80694;SDS011;70059;42.702;23.312;2024-03-02T11:24:38;40.30;;;22.67;;
80694;SDS011;70059;42.702;23.312;2024-03-02T11:27:03;36.47;;;21.48;;
80694;SDS011;70059;42.702;23.312;2024-03-02T11:32:05;41.70;;;23.08;;
80694;SDS011;70059;42.702;23.312;2024-03-02T11:34:38;37.35;;;21.67;;
80694;SDS011;70059;42.702;23.312;2024-03-02T11:37:10;36.95;;;21.48;;
80694;SDS011;70059;42.702;23.312;2024-03-02T11:39:36;32.85;;;20.88;;
80694;SDS011;70059;42.702;23.312;2024-03-02T11:42:05;38.03;;;21.08;;
80694;SDS011;70059;42.702;23.312;2024-03-02T11:44:44;36.13;;;21.23;;
80694;SDS011;70059;42.702;23.312;2024-03-02T11:47:15;36.10;;;21.60;;
80694;SDS011;70059;42.702;23.312;2024-03-02T11:49:48;32.92;;;21.65;;
80694;SDS011;70059;42.702;23.312;2024-03-02T11:52:16;41.38;;;23.60;;
80694;SDS011;70059;42.702;23.312;2024-03-02T11:54:43;45.83;;;25.33;;
80694;SDS011;70059;42.702;23.312;2024-03-02T11:57:20;45.28;;;25.67;;
80694;SDS011;70059;42.702;23.312;2024-03-02T11:59:51;56.72;;;31.48;;
80694;SDS011;70059;42.702;23.312;2024-03-02T12:02:18;49.72;;;27.45;;
80694;SDS011;70059;42.702;23.312;2024-03-02T12:04:45;35.55;;;21.33;;
80694;SDS011;70059;42.702;23.312;2024-03-02T12:07:13;34.28;;;21.50;;
80694;SDS011;70059;42.702;23.312;2024-03-02T12:09:44;32.47;;;19.88;;
80694;SDS011;70059;42.702;23.312;2024-03-02T12:12:17;42.95;;;28.95;;
80694;SDS011;70059;42.702;23.312;2024-03-02T12:14:52;34.90;;;22.65;;
80694;SDS011;70059;42.702;23.312;2024-03-02T12:17:20;32.75;;;21.42;;
80694;SDS011;70059;42.702;23.312;2024-03-02T12:19:46;32.78;;;20.23;;
80694;SDS011;70059;42.702;23.312;2024-03-02T12:22:12;35.08;;;22.23;;
80694;SDS011;70059;42.702;23.312;2024-03-02T12:24:38;38.63;;;22.98;;
80694;SDS011;70059;42.702;23.312;2024-03-02T12:27:14;34.70;;;21.30;;
80694;SDS011;70059;42.702;23.312;2024-03-02T12:29:41;34.47;;;22.55;;
80694;SDS011;70059;42.702;23.312;2024-03-02T12:32:06;34.85;;;21.90;;
80694;SDS011;70059;42.702;23.312;2024-03-02T12:34:33;33.70;;;22.73;;
80694;SDS011;70059;42.702;23.312;2024-03-02T12:36:58;35.17;;;22.38;;
80694;SDS011;70059;42.702;23.312;2024-03-02T12:39:24;34.35;;;21.98;;
80694;SDS011;70059;42.702;23.312;2024-03-02T12:41:50;31.75;;;20.75;;
80694;SDS011;70059;42.702;23.312;2024-03-02T12:44:16;34.03;;;21.23;;
80694;SDS011;70059;42.702;23.312;2024-03-02T12:46:43;29.33;;;19.52;;
80694;SDS011;70059;42.702;23.312;2024-03-02T12:49:09;31.73;;;20.17;;
80694;SDS011;70059;42.702;23.312;2024-03-02T12:51:40;34.22;;;20.48;;
80694;SDS011;70059;42.702;23.312;2024-03-02T12:54:06;30.13;;;20.27;;
80694;SDS011;70059;42.702;23.312;2024-03-02T12:56:36;36.33;;;20.83;;
80694;SDS011;70059;42.702;23.312;2024-03-02T12:59:03;31.27;;;21.27;;
80694;SDS011;70059;42.702;23.312;2024-03-02T13:01:31;29.30;;;19.55;;
80694;SDS011;70059;42.702;23.312;2024-03-02T13:03:57;28.33;;;18.95;;
80694;SDS011;70059;42.702;23.312;2024-03-02T13:06:32;33.97;;;20.33;;
80694;SDS011;70059;42.702;23.312;2024-03-02T13:08:58;29.70;;;20.00;;
80694;SDS011;70059;42.702;23.312;2024-03-02T13:11:24;31.95;;;21.13;;
80694;SDS011;70059;42.702;23.312;2024-03-02T13:13:50;31.90;;;21.63;;
80694;SDS011;70059;42.702;23.312;2024-03-02T13:16:16;33.78;;;21.95;;
80694;SDS011;70059;42.702;23.312;2024-03-02T13:18:44;34.80;;;22.77;;
80694;SDS011;70059;42.702;23.312;2024-03-02T13:21:10;32.22;;;21.00;;
80694;SDS011;70059;42.702;23.312;2024-03-02T13:23:42;33.15;;;22.30;;
80694;SDS011;70059;42.702;23.312;2024-03-02T13:26:08;39.13;;;23.40;;
80694;SDS011;70059;42.702;23.312;2024-03-02T13:28:35;33.88;;;22.90;;
80694;SDS011;70059;42.702;23.312;2024-03-02T13:31:01;30.40;;;20.75;;
80694;SDS011;70059;42.702;23.312;2024-03-02T13:33:26;31.17;;;21.23;;
80694;SDS011;70059;42.702;23.312;2024-03-02T13:35:52;32.63;;;21.58;;
80694;SDS011;70059;42.702;23.312;2024-03-02T13:38:22;32.35;;;20.75;;
80694;SDS011;70059;42.702;23.312;2024-03-02T13:40:48;32.58;;;20.90;;
80694;SDS011;70059;42.702;23.312;2024-03-02T13:43:17;30.85;;;19.10;;
80694;SDS011;70059;42.702;23.312;2024-03-02T13:45:46;31.00;;;20.05;;
80694;SDS011;70059;42.702;23.312;2024-03-02T13:48:12;29.95;;;19.85;;
80694;SDS011;70059;42.702;23.312;2024-03-02T13:50:39;30.88;;;19.92;;
80694;SDS011;70059;42.702;23.312;2024-03-02T13:53:05;28.65;;;18.65;;
80694;SDS011;70059;42.702;23.312;2024-03-02T13:55:32;31.88;;;20.48;;
80694;SDS011;70059;42.702;23.312;2024-03-02T13:57:58;29.25;;;19.63;;
80694;SDS011;70059;42.702;23.312;2024-03-02T14:00:24;33.10;;;20.20;;
80694;SDS011;70059;42.702;23.312;2024-03-02T14:02:50;33.47;;;20.70;;
80694;SDS011;70059;42.702;23.312;2024-03-02T14:05:16;35.17;;;22.65;;
80694;SDS011;70059;42.702;23.312;2024-03-02T14:07:42;33.55;;;20.85;;
80694;SDS011;70059;42.702;23.312;2024-03-02T14:10:08;31.60;;;20.60;;
80694;SDS011;70059;42.702;23.312;2024-03-02T14:12:34;30.17;;;19.85;;
80694;SDS011;70059;42.702;23.312;2024-03-02T14:15:06;34.67;;;22.13;;
80694;SDS011;70059;42.702;23.312;2024-03-02T14:17:32;38.55;;;22.25;;
80694;SDS011;70059;42.702;23.312;2024-03-02T14:19:58;30.77;;;20.77;;
80694;SDS011;70059;42.702;23.312;2024-03-02T14:22:31;33.35;;;21.20;;